Time;durP1;ratioP1;P1;durP2;ratioP2;P2;SDS_P1;SDS_P2;PMS_P1;PMS_P2;Temp;Humidity;BMP_temperature;BMP_pressure;BME280_temperature;BME280_humidity;BME280_pressure;Samples;Min_cycle;Max_cycle;Signal;HPM_P1;HPM_P2
2024/03/06 00:00:11;;;;;;;14.13;9.32;;;5.60;99.90;;;;;;5126226;27;20386;-61
2024/03/06 00:02:37;;;;;;;14.48;8.95;;;5.60;99.90;;;;;;5125037;27;20497;-61
2024/03/06 00:05:04;;;;;;;14.55;9.00;;;5.60;99.90;;;;;;5124636;27;20038;-61
2024/03/06 00:07:30;;;;;;;20.08;8.85;;;5.60;99.90;;;;;;5123144;27;20057;-60
2024/03/06 00:09:56;;;;;;;15.23;9.75;;;5.60;99.90;;;;;;5124151;27;20455;-61
2024/03/06 00:12:21;;;;;;;20.95;10.15;;;5.60;99.90;;;;;;5123845;27;20281;-60
2024/03/06 00:14:47;;;;;;;17.48;9.57;;;5.60;99.90;;;;;;5124084;27;20046;-61
2024/03/06 00:17:13;;;;;;;15.98;8.85;;;5.60;99.90;;;;;;5127322;27;20047;-60
2024/03/06 00:19:39;;;;;;;16.42;9.38;;;5.60;99.90;;;;;;5122760;27;20038;-61
2024/03/06 00:22:05;;;;;;;16.08;9.30;;;5.60;99.90;;;;;;5127203;27;20144;-61
2024/03/06 00:24:32;;;;;;;18.23;9.63;;;5.50;99.90;;;;;;5124468;27;20038;-61
2024/03/06 00:26:58;;;;;;;13.40;9.13;;;5.50;99.90;;;;;;5125180;27;20043;-61
2024/03/06 00:29:24;;;;;;;14.32;8.63;;;5.60;99.90;;;;;;5121784;27;20056;-61
2024/03/06 00:31:50;;;;;;;15.32;9.10;;;5.60;99.90;;;;;;5124256;27;20073;-61
2024/03/06 00:34:16;;;;;;;15.50;8.90;;;5.60;99.90;;;;;;5124345;27;20121;-61
2024/03/06 00:36:46;;;;;;;15.48;9.70;;;5.60;99.90;;;;;;5124294;27;20039;-61
2024/03/06 00:39:14;;;;;;;19.30;10.00;;;5.60;99.90;;;;;;5123402;27;20489;-61
2024/03/06 00:41:41;;;;;;;16.57;9.33;;;5.60;99.90;;;;;;5124574;27;20050;-61
2024/03/06 00:44:06;;;;;;;13.57;9.02;;;5.60;99.90;;;;;;5123381;27;20098;-61
2024/03/06 00:46:32;;;;;;;18.05;9.55;;;5.60;99.90;;;;;;5123340;27;20431;-61
2024/03/06 00:48:58;;;;;;;12.60;8.77;;;5.60;99.90;;;;;;5119060;27;20036;-61
2024/03/06 00:51:24;;;;;;;13.18;8.55;;;5.50;99.90;;;;;;5122999;27;20034;-61
2024/03/06 00:53:49;;;;;;;12.50;8.57;;;5.50;99.90;;;;;;5121035;27;20591;-61
2024/03/06 00:56:15;;;;;;;18.05;9.27;;;5.50;99.90;;;;;;5124968;27;20509;-61
2024/03/06 00:58:41;;;;;;;16.10;9.85;;;5.50;99.90;;;;;;5122098;27;20110;-61
2024/03/06 01:01:07;;;;;;;17.27;9.23;;;5.50;99.90;;;;;;5124969;27;20424;-60
2024/03/06 01:03:32;;;;;;;20.15;9.65;;;5.50;99.90;;;;;;5119982;27;20038;-61
2024/03/06 01:05:58;;;;;;;14.93;9.30;;;5.50;99.90;;;;;;5123685;27;20520;-61
2024/03/06 01:08:26;;;;;;;16.52;9.85;;;5.50;99.90;;;;;;5123810;27;20039;-61
2024/03/06 01:10:52;;;;;;;17.67;9.38;;;5.50;99.90;;;;;;5121848;27;20043;-61
2024/03/06 01:13:21;;;;;;;15.35;9.65;;;5.50;99.90;;;;;;5123342;27;20579;-60
2024/03/06 01:15:47;;;;;;;;;;;5.50;99.90;;;;;;5122965;27;20046;-61
2024/03/06 01:18:13;;;;;;;17.08;8.32;;;5.40;99.90;;;;;;5122728;27;19919;-61
2024/03/06 01:20:38;;;;;;;14.98;8.85;;;5.40;99.90;;;;;;5123048;27;20043;-60
2024/03/06 01:23:05;;;;;;;15.38;9.48;;;5.40;99.90;;;;;;5124450;27;20042;-61
2024/03/06 01:25:30;;;;;;;17.98;8.88;;;5.40;99.90;;;;;;5126239;27;20122;-61
2024/03/06 01:27:56;;;;;;;13.73;8.65;;;5.40;99.90;;;;;;5122678;27;20039;-61
2024/03/06 01:30:22;;;;;;;12.77;7.95;;;5.40;99.90;;;;;;5121922;27;20054;-62
2024/03/06 01:32:48;;;;;;;15.07;9.00;;;5.40;99.90;;;;;;5123487;27;20489;-60
2024/03/06 01:35:14;;;;;;;12.32;8.63;;;5.40;99.90;;;;;;5121931;27;20035;-60
2024/03/06 01:37:39;;;;;;;15.05;9.23;;;5.40;99.90;;;;;;5122274;27;20435;-61
2024/03/06 01:40:07;;;;;;;13.55;8.65;;;5.40;99.90;;;;;;5123382;27;20053;-61
2024/03/06 01:42:33;;;;;;;16.05;7.97;;;5.40;99.90;;;;;;5130327;27;20043;-61
2024/03/06 01:44:59;;;;;;;17.38;8.93;;;5.40;99.90;;;;;;5131563;27;20586;-61
2024/03/06 01:47:25;;;;;;;12.50;8.65;;;5.40;99.90;;;;;;5133739;27;20035;-61
2024/03/06 01:49:51;;;;;;;11.70;8.90;;;5.30;99.90;;;;;;5126227;27;20497;-61
2024/03/06 01:52:19;;;;;;;14.48;9.15;;;5.30;99.90;;;;;;5123694;27;20035;-60
2024/03/06 01:54:45;;;;;;;12.77;8.95;;;5.30;99.90;;;;;;5126951;27;20043;-61
2024/03/06 01:57:15;;;;;;;12.05;8.68;;;5.30;99.90;;;;;;5130342;27;20538;-60
2024/03/06 01:59:41;;;;;;;15.63;8.90;;;5.30;99.90;;;;;;5128911;27;20560;-61
2024/03/06 02:02:08;;;;;;;14.73;9.25;;;5.30;99.90;;;;;;5127208;27;20069;-61
2024/03/06 02:04:34;;;;;;;12.65;8.85;;;5.30;99.90;;;;;;5124206;27;20046;-60
2024/03/06 02:07:00;;;;;;;13.27;9.27;;;5.30;99.90;;;;;;5120055;27;20173;-61
2024/03/06 02:09:26;;;;;;;12.68;9.45;;;5.30;99.90;;;;;;5126325;27;20035;-60
2024/03/06 02:11:52;;;;;;;16.02;9.20;;;5.30;99.90;;;;;;5126850;27;20120;-61
2024/03/06 02:14:18;;;;;;;15.68;9.65;;;5.30;99.90;;;;;;5126963;27;20457;-61
2024/03/06 02:16:43;;;;;;;15.70;8.38;;;5.30;99.90;;;;;;5125143;27;20089;-60
2024/03/06 02:19:09;;;;;;;18.85;10.10;;;5.20;99.90;;;;;;5122992;27;20486;-61
2024/03/06 02:21:35;;;;;;;17.17;10.05;;;5.20;99.90;;;;;;5125605;27;20043;-61
2024/03/06 02:24:01;;;;;;;21.25;9.70;;;5.20;99.90;;;;;;5126182;27;20043;-61
2024/03/06 02:26:26;;;;;;;15.45;8.93;;;5.20;99.90;;;;;;5127576;27;20119;-61
2024/03/06 02:28:54;;;;;;;14.27;9.40;;;5.20;99.90;;;;;;5123769;27;20102;-61
2024/03/06 02:31:21;;;;;;;15.38;9.13;;;5.20;99.90;;;;;;5126983;27;20436;-60
2024/03/06 02:33:48;;;;;;;19.42;10.05;;;5.20;99.90;;;;;;5124515;27;20031;-61
2024/03/06 02:36:15;;;;;;;13.82;9.75;;;5.20;99.90;;;;;;5124536;27;20042;-60
2024/03/06 02:38:41;;;;;;;16.08;10.23;;;5.10;99.90;;;;;;5125200;27;20040;-60
2024/03/06 02:41:08;;;;;;;19.40;9.50;;;5.10;99.90;;;;;;5123831;27;20051;-61
2024/03/06 02:43:34;;;;;;;14.50;10.25;;;5.10;99.90;;;;;;5128118;27;20050;-60
2024/03/06 02:46:00;;;;;;;15.70;10.02;;;5.10;99.90;;;;;;5124018;27;20058;-60
2024/03/06 02:48:25;;;;;;;14.50;9.18;;;5.10;99.90;;;;;;5126254;27;20547;-61
2024/03/06 02:50:51;;;;;;;16.33;9.75;;;5.10;99.90;;;;;;5124407;27;20090;-61
2024/03/06 02:53:17;;;;;;;16.65;10.13;;;5.10;99.90;;;;;;5121808;27;20062;-61
2024/03/06 02:55:43;;;;;;;14.65;9.70;;;5.10;99.90;;;;;;5127546;27;20467;-61
2024/03/06 02:58:09;;;;;;;15.77;9.75;;;5.10;99.90;;;;;;5116643;27;20126;-61
2024/03/06 03:00:34;;;;;;;14.38;10.30;;;5.30;99.90;;;;;;5120414;27;20039;-61
2024/03/06 03:03:00;;;;;;;15.68;9.85;;;5.10;99.90;;;;;;5122184;27;20095;-61
2024/03/06 03:05:26;;;;;;;16.45;10.32;;;5.10;99.90;;;;;;5122504;27;20114;-61
2024/03/06 03:07:52;;;;;;;16.67;10.32;;;5.10;99.90;;;;;;5126271;27;20572;-61
2024/03/06 03:10:18;;;;;;;14.88;10.35;;;5.10;99.90;;;;;;5120992;27;20039;-61
2024/03/06 03:12:45;;;;;;;15.02;10.52;;;5.10;99.90;;;;;;5124722;27;20035;-60
2024/03/06 03:15:11;;;;;;;15.85;10.38;;;5.10;99.90;;;;;;5122515;27;20045;-61
2024/03/06 03:17:37;;;;;;;15.25;10.48;;;5.10;99.90;;;;;;5119834;27;20436;-61
2024/03/06 03:20:12;;;;;;;16.17;10.38;;;5.10;99.90;;;;;;5127079;27;20465;-61
2024/03/06 03:22:42;;;;;;;15.30;9.98;;;5.10;99.90;;;;;;5121124;27;20043;-62
2024/03/06 03:25:12;;;;;;;15.35;10.07;;;5.00;99.90;;;;;;5122322;27;20516;-61
2024/03/06 03:27:41;;;;;;;14.68;10.93;;;5.00;99.90;;;;;;5108835;27;20481;-61
2024/03/06 03:30:08;;;;;;;21.23;11.43;;;5.10;99.90;;;;;;5119258;27;20597;-61
2024/03/06 03:32:34;;;;;;;18.02;11.05;;;5.00;99.90;;;;;;5128677;27;20031;-61
2024/03/06 03:35:00;;;;;;;15.82;10.30;;;5.00;99.90;;;;;;5123309;27;20045;-61
2024/03/06 03:37:26;;;;;;;16.55;11.80;;;5.10;99.90;;;;;;5117100;27;20031;-60
2024/03/06 03:39:52;;;;;;;18.17;11.23;;;5.10;99.90;;;;;;5123000;27;20401;-60
2024/03/06 03:42:19;;;;;;;22.48;11.30;;;5.00;99.90;;;;;;5123545;27;20043;-61
2024/03/06 03:44:44;;;;;;;15.32;10.70;;;5.00;99.90;;;;;;5116729;27;20133;-62
2024/03/06 03:47:10;;;;;;;18.27;10.85;;;5.10;99.90;;;;;;5123753;27;20038;-61
2024/03/06 03:49:37;;;;;;;18.88;10.75;;;5.10;99.90;;;;;;5123611;27;20154;-60
2024/03/06 03:52:03;;;;;;;18.98;11.23;;;5.00;99.90;;;;;;5123459;27;20095;-61
2024/03/06 03:54:29;;;;;;;16.40;10.85;;;5.10;99.90;;;;;;5123141;27;20943;-60
2024/03/06 03:56:55;;;;;;;17.23;10.60;;;5.10;99.90;;;;;;5125993;27;20031;-61
2024/03/06 03:59:20;;;;;;;22.17;11.35;;;5.10;99.90;;;;;;5122212;27;20615;-61
2024/03/06 04:01:47;;;;;;;17.67;11.20;;;5.10;99.90;;;;;;5122666;27;20146;-61
2024/03/06 04:04:13;;;;;;;20.20;10.95;;;5.10;99.90;;;;;;5122263;27;20038;-61
2024/03/06 04:06:38;;;;;;;18.40;11.20;;;5.10;99.90;;;;;;5122272;27;20039;-61
2024/03/06 04:09:05;;;;;;;23.13;11.45;;;5.10;99.90;;;;;;5122996;27;20047;-61
2024/03/06 04:11:33;;;;;;;15.85;10.68;;;5.10;99.90;;;;;;5123458;27;20122;-61
2024/03/06 04:13:59;;;;;;;15.43;10.15;;;5.10;99.90;;;;;;5124809;27;20078;-61
2024/03/06 04:16:24;;;;;;;14.35;10.27;;;5.10;99.90;;;;;;5125144;27;20597;-61
2024/03/06 04:18:50;;;;;;;19.33;10.88;;;5.10;99.90;;;;;;5124825;27;20051;-60
2024/03/06 04:21:16;;;;;;;18.00;11.13;;;5.10;99.90;;;;;;5122462;27;20644;-61
2024/03/06 04:23:43;;;;;;;17.52;11.05;;;5.10;99.90;;;;;;5121694;27;20571;-61
2024/03/06 04:26:09;;;;;;;16.80;10.88;;;5.10;99.90;;;;;;5122680;27;20475;-61
2024/03/06 04:28:35;;;;;;;14.82;10.45;;;5.10;99.90;;;;;;5124031;27;20050;-61
2024/03/06 04:31:00;;;;;;;20.52;11.80;;;5.10;99.90;;;;;;5121421;27;20035;-60
2024/03/06 04:33:26;;;;;;;14.63;10.82;;;5.10;99.90;;;;;;5121675;27;20042;-59
2024/03/06 04:35:52;;;;;;;21.25;10.95;;;5.10;99.90;;;;;;5122446;27;20039;-61
2024/03/06 04:38:18;;;;;;;16.50;11.38;;;5.10;99.90;;;;;;5122282;27;20109;-61
2024/03/06 04:40:44;;;;;;;19.42;12.18;;;5.10;99.90;;;;;;5135051;27;20045;-61
2024/03/06 04:43:10;;;;;;;20.70;11.93;;;5.10;99.90;;;;;;5124173;27;20072;-61
2024/03/06 04:45:36;;;;;;;18.58;11.95;;;5.10;99.90;;;;;;5116553;27;20098;-61
2024/03/06 04:48:02;;;;;;;18.20;12.43;;;5.00;99.90;;;;;;5108691;27;20046;-61
2024/03/06 04:50:28;;;;;;;21.33;13.13;;;5.10;99.90;;;;;;5114248;27;20067;-61
2024/03/06 04:52:54;;;;;;;17.67;11.73;;;5.00;99.90;;;;;;5120513;27;20041;-61
2024/03/06 04:55:22;;;;;;;20.65;11.68;;;5.00;99.90;;;;;;5116985;27;20038;-61
2024/03/06 04:57:48;;;;;;;20.08;12.27;;;5.00;99.90;;;;;;5120420;27;20478;-61
2024/03/06 05:00:14;;;;;;;14.65;11.35;;;5.00;99.90;;;;;;5121118;27;20030;-62
2024/03/06 05:02:41;;;;;;;26.02;13.20;;;5.00;99.90;;;;;;5126855;27;20119;-61
2024/03/06 05:05:10;;;;;;;17.40;12.63;;;5.00;99.90;;;;;;5120614;27;20035;-61
2024/03/06 05:07:36;;;;;;;;;;;4.90;99.90;;;;;;5123844;27;20095;-61
2024/03/06 05:10:02;;;;;;;22.50;12.20;;;5.00;99.90;;;;;;5115349;27;19920;-61
2024/03/06 05:12:28;;;;;;;23.52;12.98;;;5.00;99.90;;;;;;5114215;27;20447;-61
2024/03/06 05:14:55;;;;;;;21.60;12.93;;;5.00;99.90;;;;;;5121233;27;20042;-60
2024/03/06 05:17:21;;;;;;;17.50;12.20;;;5.00;99.90;;;;;;5119632;27;20035;-61
2024/03/06 05:19:48;;;;;;;19.02;12.80;;;5.00;99.90;;;;;;5120532;27;20046;-61
2024/03/06 05:22:15;;;;;;;16.58;11.90;;;5.10;99.90;;;;;;5120034;27;20036;-60
2024/03/06 05:24:44;;;;;;;16.95;12.20;;;5.00;99.90;;;;;;5122216;27;20050;-60
2024/03/06 05:27:15;;;;;;;21.02;12.00;;;5.00;99.90;;;;;;5112930;28;20047;-61
2024/03/06 05:29:41;;;;;;;16.25;11.13;;;5.00;99.90;;;;;;5118838;27;20047;-61
2024/03/06 05:32:07;;;;;;;18.65;12.38;;;5.00;99.90;;;;;;5122486;27;20466;-61
2024/03/06 05:34:33;;;;;;;17.10;12.57;;;5.00;99.90;;;;;;5122754;27;20164;-61
2024/03/06 05:37:01;;;;;;;19.13;12.90;;;5.00;99.90;;;;;;5122579;27;20494;-61
2024/03/06 05:39:27;;;;;;;20.08;12.15;;;5.00;99.90;;;;;;5124914;27;20043;-61
2024/03/06 05:41:55;;;;;;;17.52;13.02;;;5.00;99.90;;;;;;5122223;27;20046;-61
2024/03/06 05:44:21;;;;;;;18.13;12.65;;;5.10;99.90;;;;;;5120658;27;20039;-61
2024/03/06 05:46:47;;;;;;;22.42;14.10;;;5.00;99.90;;;;;;5123174;27;20084;-62
2024/03/06 05:49:13;;;;;;;19.80;12.15;;;5.00;99.90;;;;;;5122487;27;20058;-62
2024/03/06 05:51:39;;;;;;;18.80;12.48;;;5.10;99.90;;;;;;5123132;27;20041;-61
2024/03/06 05:54:08;;;;;;;19.42;12.25;;;5.00;99.90;;;;;;5123227;27;20506;-61
2024/03/06 05:56:34;;;;;;;20.00;13.50;;;5.00;99.90;;;;;;5131279;27;20046;-61
2024/03/06 05:59:04;;;;;;;21.85;12.30;;;5.10;99.90;;;;;;5120107;27;20099;-62
2024/03/06 06:01:30;;;;;;;25.35;13.02;;;5.10;99.90;;;;;;5127909;27;20051;-61
2024/03/06 06:03:56;;;;;;;17.50;12.63;;;5.00;99.90;;;;;;5114323;27;20039;-62
2024/03/06 06:06:22;;;;;;;19.17;13.82;;;5.00;99.90;;;;;;5113907;27;20500;-61
2024/03/06 06:08:48;;;;;;;18.10;12.15;;;5.10;99.90;;;;;;5125373;27;20066;-61
2024/03/06 06:11:14;;;;;;;18.83;13.07;;;5.00;99.90;;;;;;5124627;27;20035;-61
2024/03/06 06:13:40;;;;;;;21.60;13.65;;;5.10;99.90;;;;;;5121132;27;20058;-61
2024/03/06 06:16:06;;;;;;;21.48;13.35;;;5.10;99.90;;;;;;5120143;27;20042;-60
2024/03/06 06:18:33;;;;;;;19.05;12.80;;;5.10;99.90;;;;;;5121839;27;20079;-61
2024/03/06 06:20:59;;;;;;;18.90;13.18;;;5.10;99.90;;;;;;5115828;27;20051;-61
2024/03/06 06:23:25;;;;;;;21.00;13.93;;;5.10;99.90;;;;;;5117552;27;20042;-61
2024/03/06 06:25:51;;;;;;;21.05;13.73;;;5.10;99.90;;;;;;5122097;27;20541;-62
2024/03/06 06:28:17;;;;;;;21.45;13.63;;;5.10;99.90;;;;;;5127803;27;20537;-61
2024/03/06 06:30:43;;;;;;;20.75;12.93;;;5.10;99.90;;;;;;5121305;27;20031;-61
2024/03/06 06:33:09;;;;;;;19.50;13.50;;;5.10;99.90;;;;;;5118864;27;20751;-61
2024/03/06 06:35:35;;;;;;;21.88;13.27;;;5.10;99.90;;;;;;5124482;27;20932;-61
2024/03/06 06:38:01;;;;;;;24.58;13.20;;;5.10;99.90;;;;;;5123854;27;20075;-61
2024/03/06 06:40:27;;;;;;;22.13;13.02;;;5.10;99.90;;;;;;5116980;27;20460;-61
2024/03/06 06:42:54;;;;;;;17.55;12.52;;;5.10;99.90;;;;;;5126015;27;20750;-61
2024/03/06 06:45:21;;;;;;;19.05;13.00;;;5.10;99.90;;;;;;5123654;27;20537;-61
2024/03/06 06:47:47;;;;;;;22.20;13.65;;;5.10;99.90;;;;;;5123380;27;20043;-62
2024/03/06 06:50:13;;;;;;;22.73;13.57;;;5.10;99.90;;;;;;5125187;27;20042;-61
2024/03/06 06:52:39;;;;;;;19.17;14.02;;;5.10;99.90;;;;;;5123211;27;20432;-61
2024/03/06 06:55:06;;;;;;;19.98;13.70;;;5.10;99.90;;;;;;5121340;27;20031;-61
2024/03/06 06:57:33;;;;;;;28.45;14.60;;;5.20;99.90;;;;;;5125447;27;20041;-61
2024/03/06 06:59:59;;;;;;;19.23;13.73;;;4.70;99.90;;;;;;5128657;27;20047;-61
2024/03/06 07:02:25;;;;;;;21.17;13.98;;;5.10;99.90;;;;;;5125025;27;20038;-61
2024/03/06 07:04:52;;;;;;;20.33;13.32;;;5.10;99.90;;;;;;5129681;27;20058;-61
2024/03/06 07:07:17;;;;;;;20.05;13.55;;;5.10;99.90;;;;;;5129016;27;20075;-62
2024/03/06 07:09:43;;;;;;;21.25;13.63;;;5.10;99.90;;;;;;5128393;27;20134;-60
2024/03/06 07:12:09;;;;;;;21.02;14.30;;;5.20;99.90;;;;;;5129067;27;20070;-61
2024/03/06 07:14:35;;;;;;;20.13;14.20;;;5.20;99.90;;;;;;5128997;27;20039;-61
2024/03/06 07:17:01;;;;;;;25.42;14.65;;;5.10;99.90;;;;;;5130959;27;20050;-62
2024/03/06 07:19:27;;;;;;;19.50;13.82;;;5.20;99.90;;;;;;5129378;27;20053;-61
2024/03/06 07:21:53;;;;;;;19.27;14.40;;;5.20;99.90;;;;;;5129823;27;20045;-61
2024/03/06 07:24:19;;;;;;;19.20;13.90;;;5.20;99.90;;;;;;5130870;27;20043;-61
2024/03/06 07:26:45;;;;;;;20.98;13.45;;;5.30;99.90;;;;;;5131038;27;20062;-62
2024/03/06 07:29:14;;;;;;;22.20;13.82;;;5.20;99.90;;;;;;5129416;27;20043;-61
2024/03/06 07:31:47;;;;;;;21.88;14.75;;;5.30;99.90;;;;;;5130973;27;20068;-61
2024/03/06 07:34:14;;;;;;;19.83;12.98;;;5.30;99.90;;;;;;5127323;27;20128;-61
2024/03/06 07:36:40;;;;;;;16.40;12.38;;;5.30;99.90;;;;;;5129898;27;20122;-62
2024/03/06 07:39:07;;;;;;;19.15;13.85;;;5.30;99.90;;;;;;5125822;27;20053;-61
2024/03/06 07:41:33;;;;;;;20.55;12.75;;;5.40;99.90;;;;;;5128687;27;20042;-61
2024/03/06 07:44:00;;;;;;;20.88;13.88;;;5.40;99.90;;;;;;5129368;27;20456;-61
2024/03/06 07:46:26;;;;;;;17.27;12.60;;;5.40;99.90;;;;;;5131137;27;20597;-61
2024/03/06 07:48:52;;;;;;;19.80;13.80;;;5.40;99.90;;;;;;5127499;27;20142;-61
2024/03/06 07:51:18;;;;;;;21.73;13.18;;;5.40;99.90;;;;;;5131416;27;20043;-61
2024/03/06 07:53:43;;;;;;;18.67;13.07;;;5.50;99.90;;;;;;5131919;27;20034;-61
2024/03/06 07:56:12;;;;;;;20.85;13.43;;;5.50;99.90;;;;;;5124948;27;20521;-61
2024/03/06 07:58:38;;;;;;;17.42;12.98;;;5.50;99.90;;;;;;5130248;27;20036;-61
2024/03/06 08:01:07;;;;;;;22.98;13.32;;;5.50;99.90;;;;;;5127239;27;20499;-62
2024/03/06 08:03:33;;;;;;;18.43;13.50;;;5.50;99.90;;;;;;5127535;27;20042;-61
2024/03/06 08:06:00;;;;;;;24.10;13.82;;;5.50;99.90;;;;;;5129548;27;20356;-61
2024/03/06 08:08:26;;;;;;;23.00;15.30;;;5.60;99.90;;;;;;5128668;27;20611;-61
2024/03/06 08:10:51;;;;;;;21.05;14.00;;;5.60;99.90;;;;;;5129358;27;20027;-62
2024/03/06 08:13:19;;;;;;;21.98;13.95;;;5.70;99.90;;;;;;5129839;27;20035;-61
2024/03/06 08:15:44;;;;;;;21.35;13.52;;;5.70;99.90;;;;;;5129946;27;20376;-61
2024/03/06 08:18:11;;;;;;;18.77;13.52;;;5.70;99.90;;;;;;5130343;27;20050;-61
2024/03/06 08:20:37;;;;;;;24.00;13.57;;;5.70;99.90;;;;;;5129769;27;20043;-61
2024/03/06 08:23:03;;;;;;;19.80;13.40;;;5.70;99.90;;;;;;5128419;27;20440;-61
2024/03/06 08:25:28;;;;;;;24.33;14.05;;;5.70;99.90;;;;;;5129091;27;20664;-61
2024/03/06 08:27:54;;;;;;;22.65;14.55;;;5.80;99.90;;;;;;5126804;27;20080;-61
2024/03/06 08:30:20;;;;;;;18.80;13.60;;;5.80;99.90;;;;;;5128828;27;20030;-61
2024/03/06 08:32:46;;;;;;;25.88;14.90;;;5.90;99.90;;;;;;5126334;27;20038;-61
2024/03/06 08:35:13;;;;;;;19.02;14.23;;;5.90;99.90;;;;;;5128903;27;20429;-61
2024/03/06 08:37:39;;;;;;;21.02;14.60;;;6.00;99.90;;;;;;5128348;27;20066;-61
2024/03/06 08:40:14;;;;;;;23.10;13.52;;;6.00;99.90;;;;;;5129228;27;20039;-61
2024/03/06 08:42:48;;;;;;;23.48;14.13;;;6.00;99.90;;;;;;5126922;27;20081;-61
2024/03/06 08:45:15;;;;;;;21.88;13.77;;;6.00;99.90;;;;;;5130155;27;20031;-61
2024/03/06 08:47:43;;;;;;;20.67;14.05;;;6.00;99.90;;;;;;5127467;27;20438;-61
2024/03/06 08:50:09;;;;;;;22.50;14.20;;;6.00;99.90;;;;;;5128604;27;20143;-61
2024/03/06 08:52:35;;;;;;;21.42;14.45;;;6.00;99.90;;;;;;5127106;27;20047;-61
2024/03/06 08:55:04;;;;;;;25.40;14.55;;;6.10;99.90;;;;;;5127233;27;20088;-61
2024/03/06 08:57:31;;;;;;;22.42;15.32;;;6.20;99.90;;;;;;5127105;27;20264;-63
2024/03/06 08:59:57;;;;;;;20.77;13.25;;;6.20;99.90;;;;;;5127501;27;20039;-61
2024/03/06 09:02:23;;;;;;;22.75;14.52;;;6.20;99.90;;;;;;5127214;27;20540;-61
2024/03/06 09:04:51;;;;;;;19.05;13.73;;;6.20;99.90;;;;;;5126083;27;20034;-61
2024/03/06 09:07:18;;;;;;;26.38;15.00;;;6.30;99.90;;;;;;5128717;27;20026;-62
2024/03/06 09:09:44;;;;;;;21.10;13.65;;;6.30;99.90;;;;;;5125195;27;20124;-62
2024/03/06 09:12:10;;;;;;;20.98;14.73;;;6.30;99.90;;;;;;5128033;27;20095;-61
2024/03/06 09:14:41;;;;;;;25.30;15.18;;;6.30;99.90;;;;;;5128317;27;20042;-61
2024/03/06 09:17:10;;;;;;;20.92;14.38;;;6.30;99.90;;;;;;5128535;27;20091;-62
2024/03/06 09:19:36;;;;;;;20.77;14.40;;;6.40;99.90;;;;;;5124935;27;20167;-61
2024/03/06 09:22:02;;;;;;;21.25;14.93;;;6.40;99.90;;;;;;5128085;27;20509;-61
2024/03/06 09:24:28;;;;;;;25.30;16.95;;;6.50;99.90;;;;;;5125587;27;20693;-61
2024/03/06 09:26:55;;;;;;;22.83;16.08;;;6.50;99.90;;;;;;5128819;27;20039;-61
2024/03/06 09:29:21;;;;;;;22.55;14.68;;;6.60;99.90;;;;;;5126821;27;20039;-61
2024/03/06 09:31:48;;;;;;;22.60;15.63;;;6.60;99.90;;;;;;5128692;27;20566;-61
2024/03/06 09:34:14;;;;;;;21.85;15.43;;;6.80;99.90;;;;;;5128249;27;20031;-61
2024/03/06 09:36:45;;;;;;;21.38;15.05;;;6.80;99.90;;;;;;5126080;27;20031;-61
2024/03/06 09:39:16;;;;;;;23.92;15.70;;;6.80;99.90;;;;;;5128363;27;20039;-62
2024/03/06 09:41:44;;;;;;;27.42;15.68;;;6.80;99.90;;;;;;5124787;27;20049;-61
2024/03/06 09:44:10;;;;;;;26.08;15.60;;;6.80;99.90;;;;;;5128956;27;20155;-61
2024/03/06 09:46:36;;;;;;;22.67;14.60;;;6.80;99.90;;;;;;5126818;27;20404;-61
2024/03/06 09:49:03;;;;;;;25.00;15.65;;;6.80;99.90;;;;;;5127577;27;20526;-62
2024/03/06 09:51:30;;;;;;;25.55;16.80;;;6.90;99.90;;;;;;5128390;27;20714;-61
2024/03/06 09:53:57;;;;;;;23.48;16.10;;;6.80;99.90;;;;;;5128934;27;20177;-62
2024/03/06 09:56:23;;;;;;;23.77;16.88;;;6.80;99.90;;;;;;5126179;27;20402;-61
2024/03/06 09:58:48;;;;;;;28.95;17.35;;;6.80;99.90;;;;;;5129913;27;20065;-61
2024/03/06 10:01:15;;;;;;;24.52;16.52;;;6.80;99.90;;;;;;5125660;27;20642;-61
2024/03/06 10:03:41;;;;;;;31.02;16.85;;;6.80;99.90;;;;;;5130920;27;20070;-61
2024/03/06 10:06:07;;;;;;;31.25;18.30;;;6.80;99.90;;;;;;5131669;27;20118;-62
2024/03/06 10:08:33;;;;;;;24.00;17.23;;;6.80;99.90;;;;;;5131756;27;20062;-61
2024/03/06 10:11:00;;;;;;;23.02;15.68;;;6.80;99.90;;;;;;5129197;27;20035;-61
2024/03/06 10:13:26;;;;;;;22.65;15.85;;;6.90;99.90;;;;;;5131670;27;20123;-61
2024/03/06 10:16:01;;;;;;;22.88;15.30;;;6.80;99.90;;;;;;5131685;27;20149;-61
2024/03/06 10:18:27;;;;;;;23.40;16.65;;;6.90;99.90;;;;;;5131935;27;20042;-64
2024/03/06 10:20:53;;;;;;;28.52;16.98;;;6.90;99.90;;;;;;5129751;27;20484;-61
2024/03/06 10:23:19;;;;;;;28.83;16.73;;;6.90;99.90;;;;;;5129808;27;20421;-62
2024/03/06 10:25:52;;;;;;;28.52;17.67;;;6.90;99.90;;;;;;5130159;27;20039;-62
2024/03/06 10:28:22;;;;;;;25.25;16.73;;;6.90;99.90;;;;;;5129824;27;20027;-61
2024/03/06 10:30:49;;;;;;;22.10;16.60;;;6.90;99.90;;;;;;5131799;27;20043;-61
2024/03/06 10:33:19;;;;;;;27.38;16.85;;;7.00;99.90;;;;;;5133198;27;20065;-61
2024/03/06 10:35:48;;;;;;;28.73;16.98;;;7.00;99.90;;;;;;5129817;27;20065;-61
2024/03/06 10:38:14;;;;;;;24.90;16.67;;;7.00;99.90;;;;;;5130490;27;20064;-61
2024/03/06 10:40:41;;;;;;;29.38;17.27;;;7.00;99.90;;;;;;5131283;27;20066;-61
2024/03/06 10:43:08;;;;;;;30.95;16.70;;;6.90;99.90;;;;;;5130053;27;20035;-61
2024/03/06 10:46:05;;;;;;;27.25;16.58;;;6.90;99.90;;;;;;5132073;27;20039;-61
2024/03/06 10:48:31;;;;;;;26.65;16.65;;;6.90;99.90;;;;;;5131084;27;20031;-61
2024/03/06 10:50:59;;;;;;;28.05;17.08;;;7.00;99.90;;;;;;5130902;27;20035;-61
2024/03/06 10:53:26;;;;;;;26.02;16.90;;;7.10;99.90;;;;;;5131479;27;20374;-61
2024/03/06 10:55:53;;;;;;;24.95;17.10;;;7.10;99.90;;;;;;5128841;27;20117;-62
2024/03/06 10:58:20;;;;;;;30.13;17.63;;;7.10;99.90;;;;;;5128557;27;20039;-61
2024/03/06 11:00:47;;;;;;;27.13;17.08;;;7.10;99.90;;;;;;5128013;27;20087;-61
2024/03/06 11:03:14;;;;;;;24.88;16.75;;;7.20;99.90;;;;;;5132028;27;20047;-62
2024/03/06 11:05:41;;;;;;;30.13;18.08;;;7.30;99.90;;;;;;5130935;27;20051;-61
2024/03/06 11:08:11;;;;;;;28.77;18.60;;;7.40;99.90;;;;;;5129125;27;20580;-62
2024/03/06 11:10:38;;;;;;;30.25;17.58;;;7.40;99.90;;;;;;5130550;27;20039;-61
2024/03/06 11:13:20;;;;;;;29.92;17.92;;;7.40;99.90;;;;;;5131510;27;20575;-60
2024/03/06 11:15:47;;;;;;;29.92;17.75;;;7.50;99.90;;;;;;5131706;27;20060;-59
2024/03/06 11:18:28;;;;;;;25.70;18.30;;;7.50;99.90;;;;;;5129889;27;20122;-60
2024/03/06 11:21:02;;;;;;;27.70;17.95;;;7.50;99.90;;;;;;5130121;27;20132;-61
2024/03/06 11:23:32;;;;;;;29.58;18.67;;;7.50;99.90;;;;;;5131636;27;20039;-62
2024/03/06 11:26:03;;;;;;;28.17;18.30;;;7.50;99.90;;;;;;5128718;27;20050;-62
2024/03/06 11:28:37;;;;;;;29.42;18.77;;;7.60;99.90;;;;;;5128568;27;20932;-63
2024/03/06 11:31:11;;;;;;;24.83;18.05;;;7.50;99.90;;;;;;5129803;27;20074;-62
2024/03/06 11:33:45;;;;;;;25.98;17.63;;;7.60;99.90;;;;;;5117740;27;20058;-61
2024/03/06 11:36:20;;;;;;;27.75;17.77;;;7.60;99.90;;;;;;5117997;27;20039;-61
2024/03/06 11:38:59;;;;;;;28.92;18.50;;;7.60;99.90;;;;;;5118053;27;20042;-61
2024/03/06 11:41:46;;;;;;;28.05;18.92;;;7.70;99.90;;;;;;5119436;27;20042;-61
2024/03/06 11:44:21;;;;;;;31.88;19.45;;;7.70;99.90;;;;;;5136857;27;20037;-61
2024/03/06 11:47:00;;;;;;;30.00;19.80;;;7.70;99.90;;;;;;5125725;27;20042;-62
2024/03/06 11:49:32;;;;;;;33.43;19.33;;;7.80;99.90;;;;;;5126697;27;20454;-62
2024/03/06 11:52:04;;;;;;;32.20;19.80;;;7.80;99.90;;;;;;5122930;27;20099;-62
2024/03/06 11:54:31;;;;;;;33.33;19.67;;;7.90;99.90;;;;;;5123448;27;20402;-62
2024/03/06 11:56:58;;;;;;;30.83;18.88;;;7.90;99.90;;;;;;5127000;27;20550;-62
2024/03/06 11:59:26;;;;;;;30.15;19.48;;;8.00;99.90;;;;;;5120720;27;20045;-62
2024/03/06 12:01:53;;;;;;;30.80;18.92;;;8.10;99.90;;;;;;5124025;27;20046;-62
2024/03/06 12:04:20;;;;;;;34.53;20.23;;;8.20;99.90;;;;;;5129229;27;20039;-63
2024/03/06 12:06:46;;;;;;;33.25;21.08;;;8.30;99.90;;;;;;5128074;27;20030;-62
2024/03/06 12:09:12;;;;;;;32.83;19.35;;;8.40;99.90;;;;;;5125640;27;20051;-63
2024/03/06 12:11:38;;;;;;;30.50;19.75;;;8.50;99.90;;;;;;5127519;27;20046;-60
2024/03/06 12:14:05;;;;;;;35.53;20.83;;;8.60;99.90;;;;;;5129028;27;20146;-62
2024/03/06 12:16:30;;;;;;;33.10;20.38;;;8.60;99.90;;;;;;5126897;27;20039;-61
2024/03/06 12:18:58;;;;;;;32.70;19.85;;;8.60;99.90;;;;;;5129551;27;20034;-61
2024/03/06 12:21:34;;;;;;;29.98;20.35;;;8.60;99.90;;;;;;5128711;27;20047;-61
2024/03/06 12:24:04;;;;;;;28.83;20.05;;;8.80;99.90;;;;;;5128379;27;20035;-61
2024/03/06 12:26:30;;;;;;;29.63;19.77;;;8.90;99.90;;;;;;5125075;27;20046;-61
2024/03/06 12:29:09;;;;;;;29.40;20.50;;;9.00;99.90;;;;;;5130529;27;20043;-61
2024/03/06 12:31:37;;;;;;;32.92;20.42;;;8.90;99.90;;;;;;5126823;27;20424;-61
2024/03/06 12:34:03;;;;;;;28.90;19.40;;;9.00;99.90;;;;;;5126303;27;20026;-61
2024/03/06 12:36:30;;;;;;;35.97;21.52;;;9.20;99.90;;;;;;5126037;27;20039;-62
2024/03/06 12:38:58;;;;;;;37.03;20.85;;;9.20;99.90;;;;;;5127665;27;20043;-61